< < Back
Terminal Aerodrome Forecast


Current Version              Previous Versions:   1  2  3  4  5  6  7  8  9  

Terminal Aerodrome Forecast

732
FTUS42 KILM 311100
TAFFLO
TAF
KFLO 311120Z 3112/0112 01008KT P6SM SKC
     FM311900 28007KT P6SM FEW250
     FM010000 VRB02KT P6SM FEW120 SCT200=

Latest METAR

585
SAUS70 KWBC 311300 RRC
MTRFLO
METAR KFLO 311253Z 27004KT 10SM CLR M04/M09 A3037 RMK AO2 SLP283
T10391094


USA.gov is the U.S. government's official web portal to all federal, state and local government web resources and services.